Airfield :
LOGIN :

Register | Disclaimer

   EN    FR    IT 

 










Legend :    VFR   Marginal VFR   IFR   Intensive IFR   Very Intensive IFR
Visi :
Ceiling :
>= 8 km
>= 3000ft
5 to 8 km
1000 to 3000 ft
1500m to 5 km
500 to 1000 ft
800 to 1500m
200 to 500 ft
< 800m
< 200 ft
Symbols :   Thunderstorms  Fog  Heavy snow  Heavy precipitations  Wind > 20 kt
SIGMETs :     Misc.  Thunderstorms  Icing  Turbulence  Mountain Waves  Volcanic Ashes







- Airport Elevation : 265 ft


ETSH - Holzdorf AB

CURRENT METAR :
  • 231920Z 35002KT 9999 BKN016 07/04 Q1021 WHT

EXPIRED METARs :
  • 231820Z 03003KT 9000 BKN016 07/04 Q1021 WHT
  • 231720Z 05003KT 6000 BKN017 07/04 Q1020 WHT

TAF AMD TAF ETSH
Valid from the 23 at 15:00 until the 24 at 00:00 UTC


231527Z 2315/2324 04005KT 9999 NSW SCT015 BKN050
TEMPO 2315/2317 08010KT 4000 -RA SCT008 BKN012 CANCEL 1600
No reported NOTAMs for that airfield.



MET'MAP, your aeronautical weather chart ! - Copyright ORBIFLY December 2007 - Disclaimer

ORBIFLY MET'MAP TEAM :

Programming & Development : Alexandra Zaïnal
Concept & Development : Baudouin d'Aumeries
Co-Development & Prog : Marc-Olivier Méhu
Technical & hardware support : Manuel Goepfert

Contact : metmap@orbifly.com




SOURCES & CREDITS :

   NOAA